createdAt,value
2019-02-23T11:56:17.606Z,5.90
2019-02-23T11:57:17.582Z,6.90
2019-02-23T11:58:17.565Z,7.20
2019-02-23T11:59:17.549Z,6.00
2019-02-23T12:00:17.513Z,6.50
2019-02-23T12:01:17.497Z,6.60
2019-02-23T12:02:17.468Z,6.30
2019-02-23T12:03:17.516Z,7.70
2019-02-23T12:04:17.433Z,6.70
2019-02-23T12:05:17.403Z,6.90
2019-02-23T12:06:17.389Z,6.40
2019-02-23T12:07:17.364Z,7.40
2019-02-23T12:08:17.359Z,7.00
2019-02-23T12:09:17.316Z,7.40
2019-02-23T12:10:17.307Z,6.00
2019-02-23T12:11:17.268Z,6.60
2019-02-23T12:12:17.254Z,6.10
2019-02-23T12:13:17.322Z,6.70
2019-02-23T12:14:17.233Z,6.20
2019-02-23T12:15:17.189Z,6.70
2019-02-23T12:16:17.182Z,7.30
2019-02-23T12:17:17.154Z,6.90
2019-02-23T12:18:17.196Z,7.30
2019-02-23T12:19:17.126Z,6.20
2019-02-23T12:20:17.093Z,6.30
2019-02-23T12:21:17.065Z,5.80
2019-02-23T12:22:17.055Z,6.30
2019-02-23T12:23:17.022Z,5.40
2019-02-23T12:24:17.008Z,8.00
2019-02-23T12:25:17.001Z,6.00
2019-02-23T12:26:17.015Z,6.00
2019-02-23T12:27:16.992Z,5.70
2019-02-23T12:28:16.955Z,4.90
2019-02-23T12:29:16.935Z,7.00
2019-02-23T12:30:16.911Z,5.30
2019-02-23T12:31:16.876Z,5.70
2019-02-23T12:32:16.891Z,5.20
2019-02-23T12:33:16.826Z,5.00
2019-02-23T12:34:16.810Z,5.80
2019-02-23T12:35:16.812Z,5.90
2019-02-23T12:36:16.785Z,6.40
2019-02-23T12:37:16.751Z,7.20
2019-02-23T12:38:16.735Z,6.20
2019-02-23T12:39:16.742Z,6.30
2019-02-23T12:40:16.697Z,6.00
2019-02-23T12:41:16.697Z,4.90
2019-02-23T12:42:16.649Z,6.30
2019-02-23T12:43:16.626Z,7.30
2019-02-23T12:44:16.610Z,5.90
2019-02-23T12:45:16.596Z,6.60
2019-02-23T12:46:16.634Z,5.30
2019-02-23T12:47:16.553Z,5.60
2019-02-23T12:48:16.549Z,5.30
2019-02-23T12:49:16.521Z,5.30
2019-02-23T12:50:16.493Z,5.30
2019-02-23T12:51:16.473Z,5.30
2019-02-23T12:52:16.470Z,4.80
2019-02-23T12:53:16.437Z,6.60
2019-02-23T12:54:17.164Z,5.50
2019-02-23T12:55:16.396Z,5.80
2019-02-23T12:56:16.392Z,4.70
2019-02-23T12:57:16.365Z,5.20
2019-02-23T12:58:16.332Z,4.70
2019-02-23T12:59:16.312Z,5.40
2019-02-23T13:00:16.316Z,4.70
2019-02-23T13:01:16.290Z,4.60
2019-02-23T13:02:16.257Z,5.10
2019-02-23T13:03:16.313Z,6.20
2019-02-23T13:04:16.245Z,5.00
2019-02-23T13:05:16.219Z,4.70
2019-02-23T13:06:16.185Z,5.10
2019-02-23T13:07:16.162Z,5.40
2019-02-23T13:08:16.180Z,3.80
2019-02-23T13:09:16.142Z,5.40
2019-02-23T13:10:16.109Z,4.40
2019-02-23T13:11:16.161Z,4.90
2019-02-23T13:12:16.099Z,5.80
2019-02-23T13:13:16.052Z,4.50
2019-02-23T13:14:16.031Z,5.80
2019-02-23T13:15:16.023Z,4.90
2019-02-23T13:16:16.044Z,6.60
2019-02-23T13:17:16.076Z,4.50
2019-02-23T13:18:16.050Z,4.20
2019-02-23T13:19:15.933Z,5.90
2019-02-23T13:20:15.946Z,5.20
2019-02-23T13:21:15.899Z,4.70
2019-02-23T13:22:15.874Z,5.10
2019-02-23T13:23:15.865Z,4.30
2019-02-23T13:24:15.922Z,3.90
2019-02-23T13:25:15.856Z,5.80
2019-02-23T13:26:15.817Z,3.90
2019-02-23T13:27:15.792Z,4.70
2019-02-23T13:28:15.764Z,5.80
2019-02-23T13:29:15.752Z,5.20
2019-02-23T13:30:15.770Z,5.40
2019-02-23T13:31:15.725Z,4.70
2019-02-23T13:32:15.698Z,4.50
2019-02-23T13:33:15.660Z,3.90
2019-02-23T13:34:15.733Z,4.20
2019-02-23T13:35:15.636Z,6.00
2019-02-23T13:36:15.637Z,5.80
2019-02-23T13:37:15.588Z,3.90
2019-02-23T13:38:15.570Z,4.30
2019-02-23T13:39:15.607Z,4.90
2019-02-23T13:40:15.955Z,4.40
2019-02-23T13:41:15.543Z,3.90
2019-02-23T13:42:15.802Z,4.40
2019-02-23T13:43:15.575Z,4.00
2019-02-23T13:44:15.464Z,3.90
2019-02-23T13:45:15.449Z,4.70
2019-02-23T13:46:15.512Z,5.80
2019-02-23T13:47:15.409Z,4.50
2019-02-23T13:48:15.386Z,5.50
2019-02-23T13:49:15.361Z,3.90
2019-02-23T13:50:15.347Z,3.80
2019-02-23T13:51:15.328Z,4.20
2019-02-23T13:52:15.321Z,5.00
2019-02-23T13:53:15.299Z,4.20
2019-02-23T13:54:15.265Z,6.10
2019-02-23T13:55:17.675Z,4.50
2019-02-23T13:56:15.246Z,4.50
2019-02-23T13:57:15.210Z,4.10
2019-02-23T13:58:15.189Z,4.70
2019-02-23T13:59:15.216Z,4.70
2019-02-23T14:00:15.163Z,4.80
2019-02-23T14:01:15.173Z,4.30
2019-02-23T14:02:15.175Z,5.10
2019-02-23T14:03:15.123Z,6.20
2019-02-23T14:04:15.131Z,4.70
2019-02-23T14:05:15.087Z,6.20
2019-02-23T14:06:15.042Z,4.60
2019-02-23T14:07:15.026Z,4.90
2019-02-23T14:08:15.056Z,4.80
2019-02-23T14:09:15.000Z,4.00
2019-02-23T14:10:14.979Z,4.20
2019-02-23T14:11:15.026Z,4.80
2019-02-23T14:12:14.945Z,6.10
2019-02-23T14:13:14.938Z,6.90
2019-02-23T14:14:15.132Z,5.80
2019-02-23T14:15:14.984Z,6.00
2019-02-23T14:16:14.878Z,6.10
2019-02-23T14:17:14.867Z,7.40
2019-02-23T14:18:14.861Z,4.80
2019-02-23T14:19:14.813Z,5.00
2019-02-23T14:20:14.786Z,3.90
2019-02-23T14:21:14.796Z,6.20
2019-02-23T14:22:14.751Z,5.30
2019-02-23T14:23:14.736Z,4.60
2019-02-23T14:24:14.741Z,4.40
2019-02-23T14:25:14.721Z,4.50
2019-02-23T14:26:14.673Z,4.50
2019-02-23T14:27:14.661Z,4.10
2019-02-23T14:28:14.711Z,4.80
2019-02-23T14:29:14.662Z,4.40
2019-02-23T14:30:14.654Z,5.20
2019-02-23T14:31:14.642Z,4.10
2019-02-23T14:32:14.583Z,4.50
2019-02-23T14:33:14.597Z,4.60
2019-02-23T14:34:14.534Z,5.30
2019-02-23T14:35:14.510Z,5.60
2019-02-23T14:36:14.505Z,5.70
2019-02-23T14:37:14.516Z,4.40
2019-02-23T14:38:14.499Z,6.70
2019-02-23T14:39:14.469Z,4.20
2019-02-23T14:40:14.440Z,4.10
2019-02-23T14:41:14.412Z,3.70
2019-02-23T14:42:14.392Z,4.50
2019-02-23T14:43:14.370Z,4.90
2019-02-23T14:44:14.349Z,4.80
2019-02-23T14:45:14.355Z,5.20
2019-02-23T14:46:14.307Z,7.10
2019-02-23T14:47:14.293Z,4.10
2019-02-23T14:48:14.303Z,5.00
2019-02-23T14:49:16.389Z,4.60
2019-02-23T14:50:14.279Z,4.40
2019-02-23T14:51:14.244Z,4.60
2019-02-23T14:52:14.212Z,4.50
2019-02-23T14:53:15.367Z,5.70
2019-02-23T14:54:14.199Z,4.00
2019-02-23T14:55:14.183Z,5.20
2019-02-23T14:56:14.265Z,4.40
2019-02-23T14:57:14.133Z,4.80
2019-02-23T14:58:14.147Z,5.60
2019-02-23T14:59:14.086Z,4.30
2019-02-23T15:00:14.062Z,5.10
2019-02-23T15:01:14.053Z,4.30
2019-02-23T15:02:14.074Z,6.10
2019-02-23T15:03:14.006Z,5.00
2019-02-23T15:04:13.995Z,4.30
2019-02-23T15:05:13.967Z,4.30
2019-02-23T15:06:13.962Z,4.60
2019-02-23T15:07:13.972Z,6.30
2019-02-23T15:08:13.979Z,3.80
2019-02-23T15:09:13.939Z,4.70
2019-02-23T15:10:13.897Z,4.30
2019-02-23T15:11:13.877Z,4.30
2019-02-23T15:12:13.863Z,5.50
2019-02-23T15:13:13.834Z,5.10
2019-02-23T15:14:13.851Z,5.10
2019-02-23T15:15:13.829Z,3.80
2019-02-23T15:16:17.143Z,5.10
2019-02-23T15:17:13.773Z,4.20
2019-02-23T15:18:13.748Z,5.10
2019-02-23T15:19:13.773Z,5.40
2019-02-23T15:20:15.211Z,4.50
2019-02-23T15:21:13.710Z,4.90
2019-02-23T15:22:13.684Z,4.80
2019-02-23T15:23:13.654Z,5.20
2019-02-23T15:24:13.624Z,5.90
2019-02-23T15:25:13.704Z,4.90
2019-02-23T15:26:13.590Z,5.50
2019-02-23T15:27:13.595Z,5.30
2019-02-23T15:28:24.867Z,4.30
2019-02-23T15:29:13.565Z,4.10
2019-02-23T15:30:13.538Z,4.10
2019-02-23T15:31:13.527Z,4.60
2019-02-23T15:32:13.483Z,6.80
2019-02-23T15:33:13.510Z,4.60
2019-02-23T15:34:13.484Z,5.50
2019-02-23T15:35:13.424Z,3.90
2019-02-23T15:36:13.438Z,5.50
2019-02-23T15:37:13.431Z,4.30
2019-02-23T15:38:13.419Z,4.60
2019-02-23T15:39:13.365Z,4.80
2019-02-23T15:40:13.449Z,4.90
2019-02-23T15:41:13.448Z,5.20
2019-02-23T15:42:13.380Z,4.30
2019-02-23T15:43:13.371Z,4.30
2019-02-23T15:44:13.284Z,4.90
2019-02-23T15:45:13.279Z,5.40
2019-02-23T15:46:13.261Z,5.60
2019-02-23T15:47:13.231Z,4.80
2019-02-23T15:48:13.211Z,5.20
2019-02-23T15:49:13.214Z,5.30
2019-02-23T15:50:13.583Z,4.90
2019-02-23T15:51:13.193Z,5.00
2019-02-23T15:52:13.156Z,5.00
2019-02-23T15:53:13.143Z,5.00
2019-02-23T15:54:13.117Z,5.90
2019-02-23T15:55:25.318Z,4.60
2019-02-23T15:56:13.045Z,4.90
2019-02-23T15:57:13.014Z,5.00
2019-02-23T15:58:13.000Z,5.10
2019-02-23T16:00:36.120Z,5.80
2019-02-23T16:01:35.979Z,4.70
2019-02-23T16:02:35.975Z,4.90
2019-02-23T16:03:36.008Z,6.40
2019-02-23T16:04:35.945Z,5.20
2019-02-23T16:05:35.901Z,5.50
2019-02-23T16:06:35.922Z,4.50
2019-02-23T16:07:35.907Z,4.50
2019-02-23T16:08:35.836Z,6.90
2019-02-23T16:09:35.820Z,5.40
2019-02-23T16:10:35.800Z,4.90
2019-02-23T16:11:35.791Z,4.80
2019-02-23T16:12:35.786Z,5.90
2019-02-23T16:13:35.740Z,4.20
2019-02-23T16:14:35.741Z,4.90
2019-02-23T16:15:37.567Z,4.50
2019-02-23T16:16:35.685Z,4.50
2019-02-23T16:17:35.683Z,5.00
2019-02-23T16:18:35.680Z,4.90
2019-02-23T16:19:35.632Z,4.20
2019-02-23T16:20:35.602Z,4.80
2019-02-23T16:21:35.646Z,4.20
2019-02-23T16:22:35.603Z,4.20
2019-02-23T16:23:35.769Z,5.10
2019-02-23T16:24:35.525Z,4.40
2019-02-23T16:25:39.310Z,4.30
2019-02-23T16:26:35.567Z,4.90
2019-02-23T16:27:35.470Z,4.70
2019-02-23T16:28:35.481Z,4.60
2019-02-23T16:29:39.732Z,4.80
2019-02-23T16:30:35.409Z,5.00
2019-02-23T16:31:35.426Z,4.70
2019-02-23T16:32:35.975Z,4.90
2019-02-23T16:33:35.398Z,4.90
2019-02-23T16:34:35.362Z,4.40
2019-02-23T16:35:35.309Z,5.10
2019-02-23T16:36:35.304Z,4.70
2019-02-23T16:37:35.281Z,4.50
2019-02-23T16:38:35.323Z,4.00
2019-02-23T16:39:37.401Z,4.90
2019-02-23T16:40:35.227Z,5.50
2019-02-23T16:41:35.238Z,5.30
2019-02-23T16:42:35.193Z,4.80
2019-02-23T16:43:35.154Z,4.40
2019-02-23T16:44:35.165Z,4.00
2019-02-23T16:45:35.150Z,4.80
2019-02-23T16:46:35.096Z,6.50
2019-02-23T16:47:35.073Z,5.20
2019-02-23T16:48:35.075Z,5.40
2019-02-23T16:49:35.062Z,5.30
2019-02-23T16:50:35.050Z,4.70
2019-02-23T16:51:34.998Z,4.70
2019-02-23T16:52:34.996Z,7.10
2019-02-23T16:53:34.976Z,5.80
2019-02-23T16:54:34.931Z,5.10
2019-02-23T16:55:34.923Z,5.10
2019-02-23T16:56:34.926Z,4.70
2019-02-23T16:57:34.869Z,4.50
2019-02-23T16:58:34.859Z,6.00
2019-02-23T16:59:34.845Z,5.50
2019-02-23T17:00:34.820Z,4.70
2019-02-23T17:01:34.803Z,4.50
2019-02-23T17:02:36.108Z,4.40
2019-02-23T17:03:34.758Z,4.40
2019-02-23T17:04:34.734Z,4.50
2019-02-23T17:05:34.711Z,4.70
2019-02-23T17:06:34.703Z,5.10
2019-02-23T17:07:34.669Z,5.00
2019-02-23T17:08:34.685Z,5.10
2019-02-23T17:09:34.653Z,4.80
2019-02-23T17:10:34.608Z,4.90
2019-02-23T17:11:34.592Z,4.60
2019-02-23T17:12:34.572Z,4.30
2019-02-23T17:13:34.571Z,6.00
2019-02-23T17:14:34.544Z,5.70
2019-02-23T17:15:34.531Z,5.30
2019-02-23T17:16:34.487Z,5.40
2019-02-23T17:17:34.514Z,5.70
2019-02-23T17:18:34.481Z,5.40
2019-02-23T17:19:34.424Z,5.20
2019-02-23T17:20:34.427Z,5.40
2019-02-23T17:21:34.429Z,4.50
2019-02-23T17:22:34.389Z,5.20
2019-02-23T17:23:34.341Z,6.50
2019-02-23T17:24:34.346Z,5.00
2019-02-23T17:25:34.317Z,5.20
2019-02-23T17:26:36.622Z,6.10
2019-02-23T17:27:36.865Z,5.10
2019-02-23T17:28:34.389Z,5.70
2019-02-23T17:29:34.228Z,5.70
2019-02-23T17:30:34.211Z,4.20
2019-02-23T17:31:34.221Z,4.70
2019-02-23T17:32:34.153Z,4.60
2019-02-23T17:33:34.152Z,5.20
2019-02-23T17:34:34.168Z,4.50
2019-02-23T17:35:34.156Z,7.00
2019-02-23T17:36:34.109Z,5.10
2019-02-23T17:37:34.052Z,4.80
2019-02-23T17:38:34.049Z,4.70
2019-02-23T17:39:34.093Z,5.20
2019-02-23T17:40:34.002Z,6.30
2019-02-23T17:41:33.969Z,5.20
2019-02-23T17:42:33.961Z,5.10
2019-02-23T17:43:33.932Z,4.90
2019-02-23T17:44:33.907Z,6.70
2019-02-23T17:45:33.892Z,4.20
2019-02-23T17:46:33.941Z,4.80
2019-02-23T17:47:33.847Z,4.50
2019-02-23T17:48:33.834Z,4.30
2019-02-23T17:49:33.822Z,5.10
2019-02-23T17:50:33.822Z,4.30
2019-02-23T17:51:33.839Z,5.00
2019-02-23T17:52:33.771Z,4.80
2019-02-23T17:53:33.737Z,5.20
2019-02-23T17:54:33.700Z,5.00
2019-02-23T17:55:33.792Z,4.70
2019-02-23T17:56:33.674Z,4.90
2019-02-23T17:57:33.645Z,5.70
2019-02-23T17:58:33.607Z,4.60
2019-02-23T17:59:33.637Z,4.50
2019-02-23T18:00:33.627Z,6.20
2019-02-23T18:01:33.578Z,5.20
2019-02-23T18:02:33.526Z,6.30
2019-02-23T18:03:33.526Z,5.10
2019-02-23T18:04:33.523Z,6.50
2019-02-23T18:05:33.474Z,4.80
2019-02-23T18:06:33.465Z,4.60
2019-02-23T18:07:33.459Z,4.70
2019-02-23T18:08:33.415Z,5.40
2019-02-23T18:09:33.379Z,5.90
2019-02-23T18:10:33.388Z,5.80
2019-02-23T18:11:33.339Z,5.70
2019-02-23T18:12:33.382Z,6.00
2019-02-23T18:13:33.349Z,6.00
2019-02-23T18:14:33.290Z,6.00
2019-02-23T18:15:33.259Z,5.00
2019-02-23T18:16:33.231Z,4.10
2019-02-23T18:17:34.730Z,5.60
2019-02-23T18:18:33.192Z,6.00
2019-02-23T18:19:33.164Z,5.80
2019-02-23T18:20:33.153Z,4.80
2019-02-23T18:21:33.122Z,6.30
2019-02-23T18:22:33.118Z,5.50
2019-02-23T18:23:33.130Z,5.40
2019-02-23T18:24:33.061Z,6.50
2019-02-23T18:25:33.060Z,5.00
2019-02-23T18:26:33.027Z,6.60
2019-02-23T18:27:32.994Z,6.20
2019-02-23T18:28:32.981Z,6.50
2019-02-23T18:29:32.968Z,5.50
2019-02-23T18:30:32.932Z,5.30
2019-02-23T18:31:32.927Z,5.70
2019-02-23T18:32:32.902Z,5.80
2019-02-23T18:33:32.864Z,6.40
2019-02-23T18:34:32.908Z,6.30
2019-02-23T18:35:32.827Z,7.20
2019-02-23T18:36:32.840Z,6.50
2019-02-23T18:37:32.795Z,7.30
2019-02-23T18:38:32.807Z,6.80
2019-02-23T18:39:32.756Z,7.10
2019-02-23T18:40:32.720Z,5.70
2019-02-23T18:41:32.703Z,6.10
2019-02-23T18:42:32.671Z,7.70
2019-02-23T18:43:32.676Z,8.50
2019-02-23T18:44:32.651Z,9.60
2019-02-23T18:45:32.623Z,6.70
2019-02-23T18:46:32.602Z,7.20
2019-02-23T18:47:32.584Z,7.10
2019-02-23T18:48:32.588Z,8.60
2019-02-23T18:49:32.523Z,8.20
2019-02-23T18:50:32.512Z,9.00
2019-02-23T18:51:32.502Z,10.70
2019-02-23T18:52:32.487Z,6.90
2019-02-23T18:53:32.447Z,6.90
2019-02-23T18:54:32.422Z,8.10
2019-02-23T18:55:40.675Z,6.60
2019-02-23T18:56:32.434Z,7.60
2019-02-23T18:57:32.375Z,6.80
2019-02-23T18:58:32.359Z,7.10
2019-02-23T18:59:32.335Z,7.00
2019-02-23T19:00:32.289Z,5.30
2019-02-23T19:01:32.274Z,5.60
2019-02-23T19:02:32.246Z,5.70
2019-02-23T19:03:32.220Z,6.20
2019-02-23T19:04:32.226Z,5.90
2019-02-23T19:05:32.175Z,5.90
2019-02-23T19:06:32.151Z,6.20
2019-02-23T19:07:32.145Z,6.60
2019-02-23T19:08:32.145Z,6.40
2019-02-23T19:09:32.093Z,6.80
2019-02-23T19:10:32.057Z,5.70
2019-02-23T19:11:32.038Z,6.80
2019-02-23T19:12:32.047Z,6.20
2019-02-23T19:13:32.000Z,6.30
2019-02-23T19:14:31.990Z,6.20
2019-02-23T19:15:31.981Z,6.60
2019-02-23T19:16:31.927Z,6.00
2019-02-23T19:17:31.919Z,6.10
2019-02-23T19:18:31.897Z,4.80
2019-02-23T19:19:31.884Z,6.70
2019-02-23T19:20:31.871Z,6.90
2019-02-23T19:21:31.824Z,4.90
2019-02-23T19:22:31.798Z,5.30
2019-02-23T19:23:31.805Z,7.30
2019-02-23T19:24:31.804Z,7.00
2019-02-23T19:25:31.735Z,6.20
2019-02-23T19:26:37.962Z,6.00
2019-02-23T19:27:31.765Z,6.20
2019-02-23T19:28:31.665Z,6.80
2019-02-23T19:29:31.672Z,6.80
2019-02-23T19:30:31.624Z,7.50
2019-02-23T19:31:31.615Z,5.70
2019-02-23T19:32:31.610Z,7.00
2019-02-23T19:33:31.579Z,5.30
2019-02-23T19:34:31.530Z,7.70
2019-02-23T19:35:31.527Z,7.00
2019-02-23T19:36:31.501Z,6.10
2019-02-23T19:37:32.627Z,7.30
2019-02-23T19:38:31.473Z,7.20
2019-02-23T19:39:31.435Z,7.30
2019-02-23T19:40:31.391Z,7.30
2019-02-23T19:41:31.379Z,7.80
2019-02-23T19:42:31.355Z,7.10
2019-02-23T19:43:31.357Z,7.40
2019-02-23T19:44:31.306Z,7.90
2019-02-23T19:45:31.298Z,7.40
2019-02-23T19:46:31.270Z,8.70
2019-02-23T19:47:31.257Z,7.20
2019-02-23T19:48:31.230Z,7.30
2019-02-23T19:49:31.190Z,7.90
2019-02-23T19:50:31.249Z,8.20
2019-02-23T19:51:31.179Z,8.20
2019-02-23T19:52:31.210Z,9.60
2019-02-23T19:53:31.106Z,8.70
2019-02-23T19:54:31.102Z,9.80
2019-02-23T19:55:31.080Z,7.70
2019-02-23T19:56:31.052Z,8.30
2019-02-23T19:57:31.024Z,8.30
2019-02-23T19:58:31.022Z,8.40
2019-02-23T19:59:30.965Z,8.40
2019-02-23T20:00:30.949Z,7.50
2019-02-23T20:01:30.953Z,8.20
2019-02-23T20:02:32.567Z,8.50
2019-02-23T20:03:30.886Z,8.20
2019-02-23T20:04:30.857Z,9.40
2019-02-23T20:05:30.843Z,8.40
2019-02-23T20:06:30.817Z,8.30
2019-02-23T20:07:30.788Z,12.30
2019-02-23T20:08:30.769Z,7.90
2019-02-23T20:09:30.759Z,8.80
2019-02-23T20:10:30.715Z,8.70
2019-02-23T20:11:30.706Z,9.50
2019-02-23T20:12:30.693Z,8.10
2019-02-23T20:13:30.693Z,12.30
2019-02-23T20:14:30.642Z,11.40
2019-02-23T20:15:30.619Z,13.90
2019-02-23T20:16:30.608Z,10.50
2019-02-23T20:17:30.570Z,13.00
2019-02-23T20:18:30.544Z,9.70
2019-02-23T20:19:30.537Z,12.70
2019-02-23T20:20:30.582Z,10.80
2019-02-23T20:21:30.506Z,10.10
2019-02-23T20:22:30.466Z,11.00
2019-02-23T20:23:30.455Z,11.30
2019-02-23T20:24:30.425Z,10.60
2019-02-23T20:25:30.415Z,8.40
2019-02-23T20:26:30.366Z,12.40
2019-02-23T20:27:30.332Z,10.90
2019-02-23T20:28:30.311Z,12.00
2019-02-23T20:29:30.362Z,11.20
2019-02-23T20:30:30.264Z,10.10
2019-02-23T20:31:30.266Z,10.10
2019-02-23T20:32:30.219Z,11.20
2019-02-23T20:33:30.267Z,11.10
2019-02-23T20:34:30.329Z,9.30
2019-02-23T20:35:32.071Z,10.90
2019-02-23T20:36:30.151Z,9.50
2019-02-23T20:37:30.129Z,8.10
2019-02-23T20:38:30.125Z,9.00
2019-02-23T20:39:30.178Z,8.60
2019-02-23T20:40:30.035Z,8.80
2019-02-23T20:41:30.024Z,8.10
2019-02-23T20:42:30.027Z,8.80
2019-02-23T20:43:29.976Z,7.50
2019-02-23T20:44:29.977Z,7.70
2019-02-23T20:45:30.024Z,8.60
2019-02-23T20:46:30.073Z,8.40
2019-02-23T20:47:30.137Z,7.50
2019-02-23T20:48:29.850Z,7.90
2019-02-23T20:49:29.838Z,7.80
2019-02-23T20:50:29.806Z,7.60
2019-02-23T20:51:29.784Z,7.70
2019-02-23T20:52:29.791Z,7.30
2019-02-23T20:53:29.741Z,8.30
2019-02-23T20:54:30.104Z,7.70
2019-02-23T20:55:29.734Z,9.10
2019-02-23T20:56:29.678Z,9.70
2019-02-23T20:57:29.674Z,8.00
2019-02-23T20:58:29.614Z,7.40
2019-02-23T20:59:29.627Z,9.10
2019-02-23T21:00:29.617Z,8.80
2019-02-23T21:01:29.694Z,8.00
2019-02-23T21:02:29.523Z,7.10
2019-02-23T21:03:29.506Z,7.40
2019-02-23T21:04:29.476Z,8.20
2019-02-23T21:05:29.470Z,7.90
2019-02-23T21:06:29.437Z,8.10
2019-02-23T21:07:29.412Z,7.60
2019-02-23T21:08:29.392Z,6.90
2019-02-23T21:09:29.367Z,7.10
2019-02-23T21:10:29.367Z,7.50
2019-02-23T21:11:29.320Z,6.90
2019-02-23T21:12:29.316Z,6.10
2019-02-23T21:13:29.266Z,8.00
2019-02-23T21:14:29.246Z,7.30
2019-02-23T21:15:29.244Z,10.10
2019-02-23T21:16:29.356Z,6.20
2019-02-23T21:17:29.190Z,6.60
2019-02-23T21:18:29.170Z,6.60
2019-02-23T21:19:29.125Z,7.50
2019-02-23T21:20:29.109Z,6.90
2019-02-23T21:21:29.072Z,5.70
2019-02-23T21:22:29.126Z,6.00
2019-02-23T21:23:29.030Z,9.00
2019-02-23T21:24:29.015Z,6.60
2019-02-23T21:25:28.982Z,7.10
2019-02-23T21:26:28.988Z,6.40
2019-02-23T21:27:28.970Z,5.40
2019-02-23T21:28:28.937Z,7.30
2019-02-23T21:29:28.907Z,7.40
2019-02-23T21:30:28.895Z,6.90
2019-02-23T21:31:28.850Z,6.60
2019-02-23T21:32:28.827Z,7.80
2019-02-23T21:33:28.798Z,5.70
2019-02-23T21:34:28.792Z,8.80
2019-02-23T21:35:28.769Z,6.60
2019-02-23T21:36:28.745Z,6.40
2019-02-23T21:37:28.723Z,7.70
2019-02-23T21:38:28.694Z,6.10
2019-02-23T21:39:28.652Z,5.60
2019-02-23T21:40:28.626Z,7.00
2019-02-23T21:41:28.608Z,6.70
2019-02-23T21:42:28.584Z,5.40
2019-02-23T21:43:28.561Z,5.40
2019-02-23T21:44:28.569Z,6.20
2019-02-23T21:45:28.562Z,6.60
2019-02-23T21:46:28.491Z,5.50
2019-02-23T21:47:28.465Z,6.50
2019-02-23T21:48:28.516Z,6.30
2019-02-23T21:49:28.424Z,5.30
2019-02-23T21:50:28.420Z,6.50
2019-02-23T21:51:28.411Z,6.20
2019-02-23T21:52:28.378Z,6.30
2019-02-23T21:53:28.333Z,6.90
2019-02-23T21:54:28.315Z,5.90
2019-02-23T21:55:28.291Z,6.80
2019-02-23T21:56:28.252Z,6.80
2019-02-23T21:57:28.265Z,5.80
2019-02-23T21:58:28.235Z,8.20
2019-02-23T21:59:28.210Z,6.20
2019-02-23T22:00:28.162Z,4.90
2019-02-23T22:01:28.142Z,7.40
2019-02-23T22:02:28.133Z,5.80
2019-02-23T22:03:28.108Z,5.80
2019-02-23T22:04:28.083Z,6.70
2019-02-23T22:05:28.039Z,7.10
2019-02-23T22:06:28.015Z,6.50
2019-02-23T22:07:28.001Z,6.20
2019-02-23T22:08:27.982Z,5.40
2019-02-23T22:09:27.977Z,5.60
2019-02-23T22:10:27.920Z,5.80
2019-02-23T22:11:27.897Z,6.70
2019-02-23T22:12:27.876Z,5.90
2019-02-23T22:13:27.926Z,6.50
2019-02-23T22:14:27.880Z,5.90
2019-02-23T22:15:27.823Z,6.20
2019-02-23T22:16:27.828Z,5.50
2019-02-23T22:17:27.804Z,5.90
2019-02-23T22:18:27.747Z,6.30
2019-02-23T22:19:27.719Z,5.80
2019-02-23T22:20:27.701Z,6.80
2019-02-23T22:21:27.658Z,6.60
2019-02-23T22:22:27.632Z,6.40
2019-02-23T22:23:27.640Z,6.10
2019-02-23T22:24:27.590Z,8.80
2019-02-23T22:25:27.583Z,6.30
2019-02-23T22:26:27.545Z,8.80
2019-02-23T22:27:31.298Z,8.40
2019-02-23T22:28:27.571Z,6.90
2019-02-23T22:29:27.487Z,8.10
2019-02-23T22:30:27.446Z,6.90
2019-02-23T22:31:27.436Z,8.20
2019-02-23T22:32:27.471Z,6.00
2019-02-23T22:33:27.422Z,8.10
2019-02-23T22:34:27.433Z,6.90
2019-02-23T22:35:27.330Z,5.80
2019-02-23T22:36:27.307Z,6.70
2019-02-23T22:37:27.287Z,6.70
2019-02-23T22:38:27.274Z,5.50
2019-02-23T22:39:27.237Z,7.10
2019-02-23T22:40:27.211Z,7.20
2019-02-23T22:41:27.194Z,5.30
2019-02-23T22:42:27.158Z,5.50
2019-02-23T22:43:27.147Z,6.40
2019-02-23T22:44:27.175Z,6.40
2019-02-23T22:45:27.144Z,6.60
2019-02-23T22:46:27.082Z,6.60
2019-02-23T22:47:27.045Z,6.10
2019-02-23T22:48:27.045Z,6.70
2019-02-23T22:49:27.003Z,7.50
2019-02-23T22:50:27.064Z,6.60
2019-02-23T22:51:26.993Z,6.90
2019-02-23T22:52:26.937Z,5.70
2019-02-23T22:53:26.929Z,6.30
2019-02-23T22:54:26.908Z,7.30
2019-02-23T22:55:26.899Z,6.40
2019-02-23T22:56:26.834Z,6.20
2019-02-23T22:57:26.829Z,6.30
2019-02-23T22:58:27.065Z,5.00
2019-02-23T22:59:26.762Z,7.30
2019-02-23T23:00:26.753Z,6.30
2019-02-23T23:01:26.721Z,6.00
2019-02-23T23:02:26.695Z,6.20
2019-02-23T23:03:26.668Z,7.90
2019-02-23T23:04:26.708Z,7.90
2019-02-23T23:05:26.645Z,6.90
2019-02-23T23:06:26.614Z,6.90
2019-02-23T23:07:26.599Z,7.00
2019-02-23T23:08:26.604Z,6.00
2019-02-23T23:09:26.523Z,7.50
2019-02-23T23:10:26.520Z,7.30
2019-02-23T23:11:26.614Z,5.50
2019-02-23T23:12:26.477Z,5.60
2019-02-23T23:13:26.481Z,6.20
2019-02-23T23:14:26.443Z,6.50
2019-02-23T23:15:26.376Z,6.50
2019-02-23T23:16:26.374Z,8.20
2019-02-23T23:17:26.340Z,6.40
2019-02-23T23:18:26.366Z,7.30
2019-02-23T23:19:26.313Z,6.70
2019-02-23T23:20:26.285Z,6.10
2019-02-23T23:21:26.237Z,6.10
2019-02-23T23:22:26.236Z,5.20
2019-02-23T23:23:26.218Z,5.40
2019-02-23T23:24:26.169Z,5.00
2019-02-23T23:25:26.164Z,6.50
2019-02-23T23:26:26.170Z,6.80
2019-02-23T23:27:26.102Z,6.70
2019-02-23T23:28:26.114Z,6.10
2019-02-23T23:29:26.090Z,6.20
2019-02-23T23:30:26.027Z,6.30
2019-02-23T23:31:26.049Z,6.40
2019-02-23T23:32:26.001Z,5.40
2019-02-23T23:33:25.992Z,6.40
2019-02-23T23:34:26.022Z,5.70
2019-02-23T23:35:25.920Z,6.30
2019-02-23T23:36:25.924Z,5.60
2019-02-23T23:37:25.860Z,6.30
2019-02-23T23:38:25.834Z,5.60
2019-02-23T23:39:25.814Z,5.30
2019-02-23T23:40:25.790Z,6.30
2019-02-23T23:41:25.781Z,6.20
2019-02-23T23:42:25.738Z,6.20
2019-02-23T23:43:25.719Z,5.80
2019-02-23T23:44:25.720Z,6.00
2019-02-23T23:45:25.679Z,5.40
2019-02-23T23:46:25.652Z,4.80
2019-02-23T23:47:25.646Z,5.00
2019-02-23T23:48:25.633Z,6.70
2019-02-23T23:49:25.575Z,5.90
2019-02-23T23:50:25.565Z,5.60
2019-02-23T23:51:25.526Z,6.50
2019-02-23T23:52:25.515Z,5.80
2019-02-23T23:53:25.514Z,5.90
2019-02-23T23:54:25.465Z,4.70
2019-02-23T23:55:25.462Z,5.90
2019-02-23T23:56:25.433Z,5.60
2019-02-23T23:57:25.403Z,5.20
2019-02-23T23:58:25.387Z,5.60
2019-02-23T23:59:25.357Z,5.50
